DW8790 Maspalomas ES current weather conditions

sailwx.info

Wind from 199 at 4 knots gusting 7

Air temperature 26.1° C
Dewpoint 18.5° C

Last reported at 2015-Jul-04 12:50 UTC.
Time now 2015-Jul-04 13:36 UTC

Location: N 27°46' W 015°34'.
View on Google Maps.

See reports from other nearby stations

  
Tides and Currents Weather Stations Pressure Air Temp Water Temp Dewpoint Dewpoint Depression Visibility Wind Speed Wind Dir Waves Ship Positions
date/time (UTC)wind fromknots sea level pressurealtimeterstation pressurevisibilityair tempwater tempwave heightnotes
2015-Jul-04 12:50 199 4 gusting 7 26.1
2015-Jul-04 12:45 233 6 gusting 10 26.7
2015-Jul-04 12:40 247 4 gusting 10 26.7
2015-Jul-04 12:35 187 5 gusting 7 26.7
2015-Jul-04 12:30 180 6 gusting 10 26.7
2015-Jul-04 12:25 208 5 gusting 7 26.7
2015-Jul-04 12:20 282 3 gusting 6 26.7
2015-Jul-04 12:15 193 5 gusting 10 26.1
2015-Jul-04 12:10 238 3 gusting 6 26.1
2015-Jul-04 12:05 252 5 gusting 7 26.1
2015-Jul-04 12:00 285 5 gusting 10 25.6
2015-Jul-04 11:55 229 5 gusting 10 25.6
2015-Jul-04 11:50 264 5 gusting 10 25.6
2015-Jul-04 11:45 266 4 gusting 7 25.6
2015-Jul-04 11:40 277 6 gusting 8 25.6
2015-Jul-04 11:35 274 5 gusting 7 25.6
2015-Jul-04 11:30 283 5 gusting 8 25.6
2015-Jul-04 11:25 272 3 gusting 7 25.6
2015-Jul-04 11:20 263 4 gusting 7 25.0
2015-Jul-04 11:15 225 3 gusting 7 25.0
2015-Jul-04 11:10 281 5 gusting 8 25.0
2015-Jul-04 11:05 262 4 gusting 6 25.0
2015-Jul-04 11:00 271 4 gusting 7 25.0
2015-Jul-04 10:55 247 4 gusting 6 25.0
2015-Jul-04 10:50 260 5 gusting 7 25.0
2015-Jul-04 10:45 283 5 gusting 8 25.6
2015-Jul-04 10:40 297 0 gusting 6 25.6
2015-Jul-04 10:35 294 1 gusting 5 25.0
2015-Jul-04 10:30 189 2 gusting 6 25.0
2015-Jul-04 10:25 218 4 gusting 6 24.4
2015-Jul-04 10:20 218 4 gusting 6 24.4
2015-Jul-04 10:15 233 4 gusting 7 25.0
2015-Jul-04 10:10 210 0 gusting 2 24.4
2015-Jul-04 10:05 262 2 gusting 5 24.4
2015-Jul-04 10:00 232 2 gusting 5 25.0
2015-Jul-04 09:55 257 1 gusting 5 24.4
2015-Jul-04 09:50 179 2 gusting 5 24.4
2015-Jul-04 09:45 111 1 gusting 2 24.4
2015-Jul-04 09:40 151 0 gusting 2 23.9
2015-Jul-04 09:35 211 2 gusting 5 24.4
2015-Jul-04 09:30 265 2 gusting 5 24.4
2015-Jul-04 09:20 132 2 gusting 5 23.9
2015-Jul-04 09:15 140 2 gusting 6 23.9
2015-Jul-04 09:10 116 4 gusting 6 23.9
2015-Jul-04 09:05 115 5 gusting 6 23.9
2015-Jul-04 09:00 117 5 gusting 7 23.9
2015-Jul-04 08:55 136 5 gusting 6 23.9
2015-Jul-04 08:50 134 3 gusting 6 23.9
2015-Jul-04 08:45 140 2 gusting 4 23.9
2015-Jul-04 08:40 092 3 gusting 6 23.9
2015-Jul-04 08:35 120 1 gusting 2 23.9
2015-Jul-04 08:30 251 23.9
2015-Jul-04 08:25 240 2 gusting 4 23.3
2015-Jul-04 08:20 259 23.3
2015-Jul-04 08:15 259 0 gusting 1 23.3
2015-Jul-04 08:10 259 0 gusting 2 23.3
2015-Jul-04 08:05 259 23.3
2015-Jul-04 08:00 259 22.8
2015-Jul-04 07:55 259 22.8
2015-Jul-04 07:50 259 0 gusting 1 22.8
2015-Jul-04 07:45 259 22.8
2015-Jul-04 07:40 259 22.2
2015-Jul-04 07:35 259 22.2
2015-Jul-04 07:30 259 21.7
2015-Jul-04 07:25 259 21.7
2015-Jul-04 07:20 259 21.1
2015-Jul-04 07:15 259 21.1
2015-Jul-04 07:10 259 20.6
2015-Jul-04 07:05 259 20.6
2015-Jul-04 07:00 259 20.0
2015-Jul-04 06:55 259 20.0
2015-Jul-04 06:50 259 19.4
2015-Jul-04 06:45 259 19.4
2015-Jul-04 06:40 259 19.4
2015-Jul-04 06:35 259 19.4
2015-Jul-04 06:30 259 19.4
2015-Jul-04 06:25 259 19.4
2015-Jul-04 06:20 259 19.4
2015-Jul-04 06:15 259 0 gusting 2 19.4
2015-Jul-04 06:10 259 19.4
2015-Jul-04 06:00 259 18.9
2015-Jul-04 05:55 259 18.9
2015-Jul-04 05:50 259 18.9
2015-Jul-04 05:45 259 18.9
2015-Jul-04 05:40 259 18.9
2015-Jul-04 05:35 259 18.9
2015-Jul-04 05:30 259 18.9
2015-Jul-04 05:25 259 18.9
2015-Jul-04 05:20 259 18.9
2015-Jul-04 05:15 259 18.9
2015-Jul-04 05:10 259 18.9
2015-Jul-04 05:05 259 18.9
2015-Jul-04 05:00 259 18.9
2015-Jul-04 04:55 259 18.9
2015-Jul-04 04:50 259 18.9
2015-Jul-04 04:45 259 18.9
2015-Jul-04 04:40 259 18.9
2015-Jul-04 04:35 259 18.9
2015-Jul-04 04:30 259 1 gusting 2 18.9
2015-Jul-04 04:25 259 0 gusting 2 18.9
2015-Jul-04 04:20 259 0 gusting 2 18.9
2015-Jul-04 04:15 259 18.9
2015-Jul-04 04:10 259 18.9
2015-Jul-04 04:05 259 18.9
2015-Jul-04 04:00 259 18.9
2015-Jul-04 03:55 259 18.9
2015-Jul-04 03:50 259 19.4
2015-Jul-04 03:45 259 19.4
2015-Jul-04 03:40 259 19.4
2015-Jul-04 03:35 259 19.4
2015-Jul-04 03:30 259 19.4
2015-Jul-04 03:25 259 19.4
2015-Jul-04 03:20 259 19.4
2015-Jul-04 03:15 259 19.4
2015-Jul-04 03:10 259 19.4
2015-Jul-04 03:05 259 19.4
2015-Jul-04 03:00 259 19.4
2015-Jul-04 02:55 259 19.4
2015-Jul-04 02:50 259 1 gusting 2 19.4
2015-Jul-04 02:45 259 2 gusting 2 19.4
2015-Jul-04 02:40 259 0 gusting 2 20.0
2015-Jul-04 02:35 259 0 gusting 2 20.0
2015-Jul-04 02:30 259 20.0
2015-Jul-04 02:25 259 20.0
2015-Jul-04 02:20 259 1 gusting 2 20.0
2015-Jul-04 02:15 259 0 gusting 2 20.6
2015-Jul-04 02:10 259 0 gusting 2 20.6
2015-Jul-04 02:05 259 2 gusting 2 20.6
2015-Jul-04 02:00 259 1 gusting 2 20.6
2015-Jul-04 01:55 259 20.6
2015-Jul-04 01:50 259 1 gusting 2 20.6
2015-Jul-04 01:45 259 0 gusting 4 20.6
2015-Jul-04 01:40 274 2 gusting 5 20.6
2015-Jul-04 01:35 298 2 gusting 4 20.6
2015-Jul-04 01:30 277 2 gusting 2 20.6
2015-Jul-04 01:25 277 0 gusting 2 20.6
2015-Jul-04 01:20 277 1 gusting 2 20.6
2015-Jul-04 01:15 277 1 gusting 4 20.6
2015-Jul-04 01:10 286 2 gusting 4 20.6
2015-Jul-04 01:05 284 1 gusting 2 21.1
2015-Jul-04 01:00 276 2 gusting 4 21.1
2015-Jul-04 00:55 265 3 gusting 5 21.1
2015-Jul-04 00:50 296 1 gusting 4 20.6
2015-Jul-04 00:45 113 0 gusting 2 20.6
2015-Jul-04 00:40 113 20.6
2015-Jul-04 00:35 113 20.6
2015-Jul-04 00:30 113 20.6
2015-Jul-04 00:25 113 20.6
2015-Jul-04 00:20 113 20.6
2015-Jul-04 00:15 113 20.6
2015-Jul-04 00:10 113 0 gusting 2 21.1
2015-Jul-04 00:05 113 21.1
2015-Jul-04 00:00 113 21.1
2015-Jul-03 23:55 113 21.1
2015-Jul-03 23:50 113 21.1
2015-Jul-03 23:45 113 1 gusting 2 21.1
2015-Jul-03 23:40 113 21.1
2015-Jul-03 23:35 113 21.1
2015-Jul-03 23:30 113 1 gusting 2 21.1
2015-Jul-03 23:25 113 21.1
2015-Jul-03 23:20 113 21.7
2015-Jul-03 23:15 125 0 gusting 2 21.7
2015-Jul-03 23:10 254 21.7
2015-Jul-03 23:05 254 21.7
2015-Jul-03 23:00 254 21.7
2015-Jul-03 22:55 254 1 gusting 2 21.7
2015-Jul-03 22:50 254 1 gusting 2 21.7
2015-Jul-03 22:45 254 2 gusting 4 21.7
2015-Jul-03 22:40 254 2 gusting 4 21.7
2015-Jul-03 22:35 237 2 gusting 5 21.7
2015-Jul-03 22:30 268 2 gusting 2 21.7
2015-Jul-03 22:25 268 0 gusting 2 21.7
2015-Jul-03 22:20 268 0 gusting 2 21.7
2015-Jul-03 22:15 268 2 gusting 4 21.7
2015-Jul-03 22:10 292 0 gusting 4 22.2
2015-Jul-03 22:05 260 3 gusting 5 22.2
2015-Jul-03 22:00 282 2 gusting 4 22.2
2015-Jul-03 21:55 261 0 gusting 2 22.2
2015-Jul-03 21:50 261 2 gusting 5 22.2
2015-Jul-03 21:45 271 2 gusting 5 22.2
2015-Jul-03 21:40 284 2 gusting 4 22.2
2015-Jul-03 21:35 284 1 gusting 4 22.2
2015-Jul-03 21:30 254 3 gusting 5 22.2
2015-Jul-03 21:20 261 3 gusting 5 22.2
2015-Jul-03 21:15 273 2 gusting 5 22.2
2015-Jul-03 21:10 279 3 gusting 6 22.2
2015-Jul-03 21:05 266 5 gusting 6 22.2
2015-Jul-03 21:00 273 4 gusting 6 22.2
2015-Jul-03 20:55 281 4 gusting 6 22.2
2015-Jul-03 20:50 283 4 gusting 6 22.2
2015-Jul-03 20:45 271 5 gusting 8 22.2
2015-Jul-03 20:40 287 5 gusting 7 22.8
2015-Jul-03 20:35 254 4 gusting 6 22.8
2015-Jul-03 20:30 261 5 gusting 7 22.8
2015-Jul-03 20:25 271 4 gusting 7 22.8
2015-Jul-03 20:20 280 4 gusting 6 22.8
2015-Jul-03 20:15 283 3 gusting 6 22.8
2015-Jul-03 20:10 239 4 gusting 6 22.8
2015-Jul-03 20:05 255 2 gusting 5 22.8
2015-Jul-03 20:00 190 2 gusting 6 22.8
2015-Jul-03 19:55 259 4 gusting 6 23.3
2015-Jul-03 19:50 276 4 gusting 6 23.3
2015-Jul-03 19:45 254 3 gusting 5 23.3
2015-Jul-03 19:40 239 3 gusting 5 23.3
2015-Jul-03 19:35 219 2 gusting 6 23.3
2015-Jul-03 19:30 231 4 gusting 6 23.9
2015-Jul-03 19:25 254 4 gusting 6 23.9
2015-Jul-03 19:20 268 4 gusting 6 23.9
2015-Jul-03 19:15 231 5 gusting 10 24.4
2015-Jul-03 19:10 268 4 gusting 6 24.4
2015-Jul-03 19:05 220 4 gusting 6 24.4
2015-Jul-03 19:00 250 5 gusting 7 25.0
2015-Jul-03 18:55 257 4 gusting 6 25.0
2015-Jul-03 18:50 262 4 gusting 6 25.0
2015-Jul-03 18:45 231 4 gusting 8 25.0
2015-Jul-03 18:40 260 2 gusting 8 25.6
2015-Jul-03 18:35 217 4 gusting 6 25.6
2015-Jul-03 18:30 287 5 gusting 7 25.6
2015-Jul-03 18:25 247 2 gusting 6 25.6
2015-Jul-03 18:20 254 5 gusting 6 25.6
2015-Jul-03 18:15 277 3 gusting 7 25.6
2015-Jul-03 18:10 234 4 gusting 7 25.6
2015-Jul-03 18:05 213 5 gusting 10 25.6
2015-Jul-03 18:00 263 4 gusting 7 25.6
2015-Jul-03 17:55 223 5 gusting 10 25.6
2015-Jul-03 17:50 271 5 gusting 8 25.6
2015-Jul-03 17:45 309 3 gusting 7 25.6
2015-Jul-03 17:40 283 6 gusting 8 25.6
2015-Jul-03 17:35 277 5 gusting 8 26.1
2015-Jul-03 17:30 269 6 gusting 10 26.1
2015-Jul-03 17:25 285 5 gusting 8 26.1
2015-Jul-03 17:20 297 5 gusting 7 26.1
2015-Jul-03 17:15 245 4 gusting 6 26.1
2015-Jul-03 17:10 214 5 gusting 6 26.1
2015-Jul-03 17:05 286 4 gusting 7 26.1
2015-Jul-03 17:00 197 4 gusting 10 26.1
2015-Jul-03 16:55 213 3 gusting 6 26.1
2015-Jul-03 16:50 220 3 gusting 7 26.1
2015-Jul-03 16:45 271 4 gusting 11 25.6
2015-Jul-03 16:40 276 5 gusting 8 26.1
2015-Jul-03 16:35 260 4 gusting 8 26.1
2015-Jul-03 16:30 228 4 gusting 7 26.1
2015-Jul-03 16:25 237 5 gusting 10 26.1
2015-Jul-03 16:20 167 3 gusting 10 26.1
2015-Jul-03 16:15 228 5 gusting 10 26.7
2015-Jul-03 16:10 182 2 gusting 7 26.7
2015-Jul-03 16:05 180 4 gusting 6 26.7
2015-Jul-03 16:00 266 2 gusting 6 26.7
2015-Jul-03 15:55 182 4 gusting 7 26.1
2015-Jul-03 15:50 176 4 gusting 10 26.1
2015-Jul-03 15:45 247 4 gusting 10 26.1
2015-Jul-03 15:40 251 2 gusting 6 26.7
2015-Jul-03 15:35 256 4 gusting 8 26.1
2015-Jul-03 15:30 244 5 gusting 7 26.1
2015-Jul-03 15:25 229 5 gusting 8 26.1
2015-Jul-03 15:20 280 6 gusting 8 26.1
2015-Jul-03 15:15 266 6 gusting 11 26.1
2015-Jul-03 15:10 243 6 gusting 11 26.7
2015-Jul-03 15:05 200 5 gusting 10 26.1
2015-Jul-03 15:00 265 7 gusting 12 26.1
2015-Jul-03 14:55 248 7 gusting 11 26.7
2015-Jul-03 14:50 223 6 gusting 10 26.7
2015-Jul-03 14:45 243 7 gusting 12 26.7
2015-Jul-03 14:40 239 5 gusting 10 26.7
2015-Jul-03 14:35 251 6 gusting 10 26.7
2015-Jul-03 14:30 223 6 gusting 10 26.7
2015-Jul-03 14:25 235 7 gusting 11 26.7
2015-Jul-03 14:20 251 6 gusting 13 26.7
2015-Jul-03 14:15 245 6 gusting 10 26.7
2015-Jul-03 14:10 237 5 gusting 10 26.7
2015-Jul-03 14:05 261 5 gusting 10 26.7
2015-Jul-03 14:00 208 5 gusting 8 26.1
2015-Jul-03 13:55 285 5 gusting 8 26.1
2015-Jul-03 13:50 264 6 gusting 10 26.7
2015-Jul-03 13:45 278 4 gusting 10 26.1
2015-Jul-03 13:40 248 5 gusting 10 26.1
2015-Jul-03 13:35 207 5 gusting 11 26.1
2015-Jul-03 13:30 230 6 gusting 12 26.7
2015-Jul-03 13:25 260 5 gusting 8 26.1
2015-Jul-03 13:20 215 6 gusting 10 26.1
2015-Jul-03 13:15 255 5 gusting 8 26.1
2015-Jul-03 13:10 266 4 gusting 8 26.1
2015-Jul-03 13:05 232 6 gusting 10 25.6
2015-Jul-03 13:00 258 6 gusting 10 25.6
2015-Jul-03 12:55 273 5 gusting 10 25.6
2015-Jul-03 12:50 249 5 gusting 6 25.6
2015-Jul-03 12:45 252 5 gusting 10 25.6
2015-Jul-03 12:40 219 5 gusting 7 25.6
2015-Jul-03 12:35 281 5 gusting 8 25.6
2015-Jul-03 12:30 227 5 gusting 10 25.6
2015-Jul-03 12:25 228 6 gusting 8 26.1
2015-Jul-03 12:20 250 2 gusting 10 26.1
2015-Jul-03 12:15 260 6 gusting 10 26.1
2015-Jul-03 12:10 194 3 gusting 10 25.6
2015-Jul-03 12:05 208 2 gusting 10 25.6
2015-Jul-03 12:00 247 5 gusting 7 26.1
2015-Jul-03 11:55 228 5 gusting 7 26.1
2015-Jul-03 11:50 218 4 gusting 7 25.6
2015-Jul-03 11:45 241 4 gusting 6 25.6
2015-Jul-03 11:40 182 4 gusting 7 25.6
2015-Jul-03 11:35 213 4 gusting 6 25.6
2015-Jul-03 11:30 225 5 gusting 7 25.6
2015-Jul-03 11:25 227 4 gusting 7 25.0
2015-Jul-03 11:20 264 5 gusting 8 25.0
2015-Jul-03 11:15 247 4 gusting 7 25.6
2015-Jul-03 11:10 232 4 gusting 6 25.6
2015-Jul-03 11:05 218 3 gusting 7 25.0
2015-Jul-03 11:00 218 4 gusting 7 25.0
2015-Jul-03 10:55 235 5 gusting 7 25.0
2015-Jul-03 10:50 204 4 gusting 6 25.0
2015-Jul-03 10:45 204 6 gusting 10 25.0
2015-Jul-03 10:40 221 6 gusting 10 25.0
2015-Jul-03 10:35 206 6 gusting 10 25.0
2015-Jul-03 10:30 207 5 gusting 10 25.6
2015-Jul-03 10:25 188 3 gusting 7 25.6
2015-Jul-03 10:20 224 4 gusting 8 25.6
2015-Jul-03 10:15 247 4 gusting 6 25.0
2015-Jul-03 10:10 229 4 gusting 10 25.0
2015-Jul-03 10:05 250 3 gusting 10 25.0
2015-Jul-03 10:00 201 5 gusting 6 25.0
2015-Jul-03 09:55 209 4 gusting 10 25.0
2015-Jul-03 09:50 199 4 gusting 7 25.0
2015-Jul-03 09:45 187 3 gusting 6 25.0
2015-Jul-03 09:40 185 5 gusting 7 24.4
2015-Jul-03 09:35 218 4 gusting 7 24.4
2015-Jul-03 09:30 227 2 gusting 6 24.4
2015-Jul-03 09:20 240 3 gusting 6 25.0
2015-Jul-03 09:15 179 3 gusting 6 25.0
2015-Jul-03 09:10 175 2 gusting 6 25.0
2015-Jul-03 09:05 203 1 gusting 6 25.0
2015-Jul-03 09:00 275 24.4
2015-Jul-03 08:55 275 24.4
2015-Jul-03 08:50 275 0 gusting 2 24.4
2015-Jul-03 08:45 213 2 gusting 4 24.4
2015-Jul-03 08:40 117 1 gusting 2 23.9
2015-Jul-03 08:35 173 0 gusting 2 23.9
2015-Jul-03 08:30 209 0 gusting 2 23.3
2015-Jul-03 08:25 215 2 gusting 2 23.3
2015-Jul-03 08:20 227 0 gusting 4 22.8
2015-Jul-03 08:15 259 1 gusting 5 22.8
2015-Jul-03 08:10 267 3 gusting 5 22.8
2015-Jul-03 08:05 218 2 gusting 6 22.8
2015-Jul-03 08:00 261 2 gusting 6 22.8
2015-Jul-03 07:55 274 1 gusting 4 22.8
2015-Jul-03 07:50 275 2 gusting 4 22.8
2015-Jul-03 07:45 268 2 gusting 5 22.2
2015-Jul-03 07:40 269 2 gusting 4 22.2
2015-Jul-03 07:35 269 22.2
2015-Jul-03 07:30 269 21.7
2015-Jul-03 07:25 269 2 gusting 4 21.7
2015-Jul-03 07:20 269 1 gusting 4 21.7
2015-Jul-03 07:15 269 2 gusting 4 21.7
2015-Jul-03 07:10 269 1 gusting 2 21.7
2015-Jul-03 07:05 269 0 gusting 2 21.7
2015-Jul-03 07:00 278 2 gusting 5 21.7
2015-Jul-03 06:55 237 2 gusting 4 21.1
2015-Jul-03 06:50 196 21.1
2015-Jul-03 06:45 196 1 gusting 4 21.7
2015-Jul-03 06:40 219 1 gusting 5 21.1
2015-Jul-03 06:35 231 0 gusting 6 21.1
2015-Jul-03 06:30 209 0 gusting 2 21.1
2015-Jul-03 06:25 209 21.1
2015-Jul-03 06:20 209 21.7
2015-Jul-03 06:15 209 1 gusting 4 21.7
2015-Jul-03 06:10 209 2 gusting 4 21.7
2015-Jul-03 06:05 240 1 gusting 2 21.7
2015-Jul-03 06:00 230 21.7
2015-Jul-03 05:55 233 1 gusting 4 21.7
2015-Jul-03 05:50 250 3 gusting 6 21.7
2015-Jul-03 05:45 248 3 gusting 4 21.7
2015-Jul-03 05:40 105 21.1
2015-Jul-03 05:35 105 0 gusting 2 21.1
2015-Jul-03 05:30 105 0 gusting 2 21.1
2015-Jul-03 05:25 105 21.1
2015-Jul-03 05:20 105 21.1
2015-Jul-03 05:15 105 21.1
2015-Jul-03 05:10 105 21.7
2015-Jul-03 05:05 105 21.7
2015-Jul-03 05:00 105 0 gusting 2 21.7
2015-Jul-03 04:55 105 0 gusting 2 21.7
2015-Jul-03 04:50 105 0 gusting 2 21.7
2015-Jul-03 04:45 105 2 gusting 2 21.7
2015-Jul-03 04:40 105 1 gusting 2 21.7
2015-Jul-03 04:35 105 2 gusting 2 21.7
2015-Jul-03 04:30 105 2 gusting 2 21.7
2015-Jul-03 04:25 105 2 gusting 2 21.7
2015-Jul-03 04:20 105 2 gusting 6 21.7
2015-Jul-03 04:15 103 3 gusting 4 21.7
2015-Jul-03 04:10 098 1 gusting 2 21.7
2015-Jul-03 04:05 098 1 gusting 2 21.7
2015-Jul-03 04:00 138 1 gusting 2 21.7
2015-Jul-03 03:55 110 2 gusting 5 21.7
2015-Jul-03 03:50 115 1 gusting 4 21.7
2015-Jul-03 03:45 115 1 gusting 2 21.7
2015-Jul-03 03:40 115 0 gusting 2 21.7
2015-Jul-03 03:35 115 1 gusting 2 21.7
2015-Jul-03 03:30 115 1 gusting 2 21.7
2015-Jul-03 03:25 115 1 gusting 2 21.7
2015-Jul-03 03:20 115 2 gusting 4 21.7
2015-Jul-03 03:15 141 2 gusting 2 21.7
2015-Jul-03 03:10 244 0 gusting 2 22.2
2015-Jul-03 03:05 243 0 gusting 2 22.2
2015-Jul-03 03:00 112 21.7
2015-Jul-03 02:55 112 1 gusting 2 21.7
2015-Jul-03 02:50 112 2 gusting 2 21.7
2015-Jul-03 02:45 112 2 gusting 2 21.7
2015-Jul-03 02:40 112 1 gusting 2 21.7
2015-Jul-03 02:35 112 1 gusting 2 21.7
2015-Jul-03 02:30 112 1 gusting 2 21.7
2015-Jul-03 02:25 112 0 gusting 2 21.7
2015-Jul-03 02:20 112 21.1
2015-Jul-03 02:15 112 21.1
2015-Jul-03 02:10 112 21.1
2015-Jul-03 02:05 112 21.1
2015-Jul-03 02:00 112 21.1
2015-Jul-03 01:55 112 21.1
2015-Jul-03 01:50 112 21.1
2015-Jul-03 01:45 112 21.1
2015-Jul-03 01:40 112 21.1
2015-Jul-03 01:35 112 21.1
2015-Jul-03 01:30 112 21.7
2015-Jul-03 01:25 112 21.7
2015-Jul-03 01:20 112 21.7
2015-Jul-03 01:15 112 21.7
2015-Jul-03 01:10 112 21.7
2015-Jul-03 01:05 112 21.7
2015-Jul-03 01:00 112 0 gusting 2 21.7
2015-Jul-03 00:55 112 2 gusting 4 21.7
2015-Jul-03 00:50 105 3 gusting 6 22.2
2015-Jul-03 00:45 107 5 gusting 6 22.2
2015-Jul-03 00:40 126 2 gusting 5 22.2
2015-Jul-03 00:35 277 22.8
2015-Jul-03 00:30 277 22.8
2015-Jul-03 00:25 277 2 gusting 4 22.8
2015-Jul-03 00:20 257 0 gusting 4 22.2
2015-Jul-03 00:15 257 0 gusting 2 22.8
2015-Jul-03 00:10 257 1 gusting 4 22.8
2015-Jul-03 00:05 270 2 gusting 4 22.8
2015-Jul-03 00:00 274 0 gusting 4 22.8
2015-Jul-02 23:55 249 2 gusting 4 22.8
2015-Jul-02 23:50 101 22.8
2015-Jul-02 23:45 101 0 gusting 1 22.8
2015-Jul-02 23:40 101 1 gusting 4 22.8
2015-Jul-02 23:35 077 1 gusting 4 22.8
2015-Jul-02 23:30 089 1 gusting 6 22.2
2015-Jul-02 23:25 092 2 gusting 6 22.2
2015-Jul-02 23:20 087 5 gusting 6 22.2
2015-Jul-02 23:15 100 4 gusting 7 22.8
2015-Jul-02 23:10 102 5 gusting 10 22.8
2015-Jul-02 23:05 092 5 gusting 8 22.8
2015-Jul-02 23:00 111 3 gusting 6 22.8
2015-Jul-02 22:55 109 3 gusting 6 22.8
2015-Jul-02 22:50 108 4 gusting 6 22.8
2015-Jul-02 22:45 111 4 gusting 6 22.8
2015-Jul-02 22:40 061 0 gusting 2 22.8
2015-Jul-02 22:35 180 0 gusting 2 22.8
2015-Jul-02 22:30 144 0 gusting 2 22.8
2015-Jul-02 22:25 140 22.8
2015-Jul-02 22:20 177 0 gusting 2 22.8
2015-Jul-02 22:15 117 0 gusting 2 22.8
2015-Jul-02 22:10 226 22.8
2015-Jul-02 22:05 226 1 gusting 5 22.8
2015-Jul-02 22:00 239 2 gusting 5 22.8
2015-Jul-02 21:55 225 2 gusting 4 22.8
2015-Jul-02 21:50 236 3 gusting 6 22.8
2015-Jul-02 21:45 267 4 gusting 5 22.8
2015-Jul-02 21:40 264 4 gusting 5 22.8
2015-Jul-02 21:35 248 2 gusting 4 22.8
2015-Jul-02 21:30 245 4 gusting 5 22.8
2015-Jul-02 21:20 251 2 gusting 5 22.8
2015-Jul-02 21:15 254 3 gusting 5 22.8
2015-Jul-02 21:10 240 3 gusting 5 22.8
2015-Jul-02 21:05 232 2 gusting 4 22.8
2015-Jul-02 21:00 261 2 gusting 5 22.8
2015-Jul-02 20:55 256 4 gusting 6 22.8
2015-Jul-02 20:50 245 3 gusting 6 22.8
2015-Jul-02 20:45 250 4 gusting 6 22.8
2015-Jul-02 20:40 221 2 gusting 5 22.8
2015-Jul-02 20:35 240 2 gusting 5 22.8
2015-Jul-02 20:30 237 3 gusting 5 22.8
2015-Jul-02 20:25 220 2 gusting 6 22.8
2015-Jul-02 20:20 242 3 gusting 6 22.8
2015-Jul-02 20:15 256 3 gusting 6 23.3
2015-Jul-02 20:10 232 3 gusting 6 23.3
2015-Jul-02 20:05 224 4 gusting 6 23.3
2015-Jul-02 20:00 227 2 gusting 5 23.3
2015-Jul-02 19:55 260 1 gusting 4 23.3
2015-Jul-02 19:50 307 1 gusting 5 23.9
2015-Jul-02 19:45 288 3 gusting 6 23.9
2015-Jul-02 19:40 241 3 gusting 6 23.9
2015-Jul-02 19:35 226 1 gusting 6 23.9
2015-Jul-02 19:30 224 2 gusting 4 24.4
2015-Jul-02 19:25 275 4 gusting 6 24.4
2015-Jul-02 19:20 279 3 gusting 6 24.4
2015-Jul-02 19:15 269 2 gusting 6 24.4
2015-Jul-02 19:10 260 0 gusting 2 24.4
2015-Jul-02 19:05 217 3 gusting 6 24.4
2015-Jul-02 19:00 236 3 gusting 6 24.4
2015-Jul-02 18:55 210 3 gusting 6 24.4
2015-Jul-02 18:50 229 4 gusting 8 24.4
2015-Jul-02 18:45 266 4 gusting 6 25.0
2015-Jul-02 18:40 223 5 gusting 8 25.0
2015-Jul-02 18:35 252 5 gusting 7 25.0
2015-Jul-02 18:30 235 4 gusting 7 25.0
2015-Jul-02 18:25 240 5 gusting 8 25.6
2015-Jul-02 18:20 223 4 gusting 6 25.6
2015-Jul-02 18:15 248 4 gusting 7 25.6
2015-Jul-02 18:10 203 2 gusting 6 25.6
2015-Jul-02 18:05 220 5 gusting 8 25.6
2015-Jul-02 18:00 276 6 gusting 8 25.6
2015-Jul-02 17:55 256 6 gusting 7 25.6
2015-Jul-02 17:50 298 5 gusting 8 25.6
2015-Jul-02 17:45 223 5 gusting 10 25.0
2015-Jul-02 17:40 241 4 gusting 8 25.0
2015-Jul-02 17:35 290 6 gusting 10 25.6
2015-Jul-02 17:30 227 7 gusting 12 25.6
2015-Jul-02 17:25 265 6 gusting 10 25.6
2015-Jul-02 17:20 278 7 gusting 11 25.6
2015-Jul-02 17:15 254 6 gusting 11 25.6
2015-Jul-02 17:10 283 6 gusting 11 26.1
2015-Jul-02 17:05 225 6 gusting 10 26.1
2015-Jul-02 17:00 271 6 gusting 10 26.1
2015-Jul-02 16:55 263 6 gusting 10 26.1
2015-Jul-02 16:50 236 6 gusting 10 26.1
2015-Jul-02 16:45 208 6 gusting 10 26.1
2015-Jul-02 16:40 244 6 gusting 10 26.1
2015-Jul-02 16:35 236 5 gusting 11 26.1
2015-Jul-02 16:30 260 6 gusting 11 26.1
2015-Jul-02 16:25 276 6 gusting 11 26.7
2015-Jul-02 16:20 265 5 gusting 8 26.7
2015-Jul-02 16:15 285 6 gusting 10 26.7
2015-Jul-02 16:10 235 6 gusting 12 26.7
2015-Jul-02 16:05 179 5 gusting 10 26.1
2015-Jul-02 16:00 249 6 gusting 11 26.1
2015-Jul-02 15:55 279 6 gusting 10 26.1
2015-Jul-02 15:50 272 6 gusting 10 26.1
2015-Jul-02 15:45 280 7 gusting 11 26.1
2015-Jul-02 15:40 274 7 gusting 12 26.1
2015-Jul-02 15:35 208 6 gusting 12 26.1
2015-Jul-02 15:30 222 6 gusting 10 26.7
2015-Jul-02 15:25 322 6 gusting 11 26.1
2015-Jul-02 15:20 255 6 gusting 11 26.1
2015-Jul-02 15:15 250 5 gusting 10 26.1
2015-Jul-02 15:10 247 6 gusting 12 26.1
2015-Jul-02 15:05 258 7 gusting 12 26.1
2015-Jul-02 15:00 279 8 gusting 12 26.1
2015-Jul-02 14:55 257 5 gusting 11 26.7
2015-Jul-02 14:50 251 8 gusting 12 26.1
2015-Jul-02 14:45 287 6 gusting 12 26.1
2015-Jul-02 14:40 260 9 gusting 14 26.1
2015-Jul-02 14:35 251 6 gusting 12 26.7
2015-Jul-02 14:30 281 7 gusting 12 26.7
2015-Jul-02 14:25 235 6 gusting 10 26.7
2015-Jul-02 14:20 240 7 gusting 12 26.7
2015-Jul-02 14:15 296 7 gusting 13 26.7
2015-Jul-02 14:10 297 6 gusting 11 27.2
2015-Jul-02 14:05 218 6 gusting 10 26.7
2015-Jul-02 14:00 272 5 gusting 11 26.7
2015-Jul-02 13:55 218 6 gusting 12 26.7
2015-Jul-02 13:50 294 5 gusting 11 26.7
2015-Jul-02 13:45 280 5 gusting 10 26.7
2015-Jul-02 13:40 241 6 gusting 10 26.1
2015-Jul-02 13:35 299 6 gusting 11 26.1
2015-Jul-02 13:30 256 6 gusting 10 26.1
2015-Jul-02 13:25 247 5 gusting 10 26.1
2015-Jul-02 13:20 287 6 gusting 10 26.1
2015-Jul-02 13:15 270 6 gusting 11 26.1
2015-Jul-02 13:10 262 6 gusting 10 26.1
2015-Jul-02 13:05 255 7 gusting 12 26.1
2015-Jul-02 13:00 243 6 gusting 8 26.1